Language: 


Des rapports , des résumés tant et plus, au choix de chacun....


Données Historiques de Météogheer
Journalier Rapport pour Janvier 3, 2018 Unitée:  Les deux    Impériale   Métrique
Suivant Jour »
Journalier Hebdomadaire Mensuel Annuel Sur mesure
  Max: Min: Moyenne:
Température: 54.5 °F /  12.5 °C 46 °F /  7.8 °C 49.6 °F /  9.8 °C
Point de rosée: 55.4 °F /  13.0 °C 37.4 °F /  3.0 °C 43.2 °F /  6.2 °C
Humidité: 98% 63% 77%
Vent: 39.4mph /  63.4km/h - 19.1mph /  30.7km/h
Rafales: 45.9mph /  73.9km/h - -
Vent- - WSW
Pression: 29.6 in /  1001.9 hPa 29.2 in /  988.0 hPa -
Pluie: 0.37 in /  9.4 mm    
Historical Graphs
 
 
Données tabulaires pour Janvier 3, 2018
Heure Température Point de rosée Pression Vent Vent Rafales Humidité Pluie Taux (Horaire) Conditions
00:03 51.4 °F /  10.8 °C 50 °F /  10.0 °C 29.4in /  996.2hPa South 7.4mph /  11.9km/h 11mph /  17.7km/h 97% 0in /  0.0mm
00:04 51.4 °F /  10.8 °C 50 °F /  10.0 °C 29.4in /  996.2hPa South 8.5mph /  13.7km/h 11mph /  17.7km/h 97% 0in /  0.0mm
00:09 51.6 °F /  10.9 °C 51.8 °F /  11.0 °C 29.4in /  996.2hPa WSW 8.7mph /  14.0km/h 14.8mph /  23.8km/h 97% 0in /  0.0mm
00:14 51.8 °F /  11.0 °C 51.8 °F /  11.0 °C 29.4in /  996.8hPa SSW 8.5mph /  13.7km/h 15.4mph /  24.8km/h 97% 0in /  0.0mm
00:20 52 °F /  11.1 °C 51.8 °F /  11.0 °C 29.4in /  996.8hPa WSW 8.5mph /  13.7km/h 15.4mph /  24.8km/h 97% 0in /  0.0mm
00:25 52 °F /  11.1 °C 51.8 °F /  11.0 °C 29.4in /  996.8hPa SW 14.8mph /  23.8km/h 19.5mph /  31.4km/h 97% 0in /  0.0mm
00:28 52 °F /  11.1 °C 51.8 °F /  11.0 °C 29.4in /  995.1hPa SW 10.5mph /  16.9km/h 19.5mph /  31.4km/h 97% 0in /  0.0mm
00:33 52 °F /  11.1 °C 51.8 °F /  11.0 °C 29.4in /  995.1hPa SSW 6.9mph /  11.1km/h 14.8mph /  23.8km/h 97% 0in /  0.0mm
00:34 52 °F /  11.1 °C 51.8 °F /  11.0 °C 29.4in /  995.1hPa SW 10.7mph /  17.2km/h 14.8mph /  23.8km/h 97% 0in /  0.0mm
00:40 51.8 °F /  11.0 °C 51.8 °F /  11.0 °C 29.4in /  995.1hPa SSW 9.8mph /  15.8km/h 15.4mph /  24.8km/h 98% 0.03in /  0.8mm
00:41 51.8 °F /  11.0 °C 51.8 °F /  11.0 °C 29.4in /  995.1hPa SW 8.7mph /  14.0km/h 15.4mph /  24.8km/h 98% 0.04in /  1.0mm
00:42 51.8 °F /  11.0 °C 51.8 °F /  11.0 °C 29.4in /  995.1hPa SW 17.2mph /  27.7km/h 17.2mph /  27.7km/h 98% 0.04in /  1.0mm
00:47 51.6 °F /  10.9 °C 51.8 °F /  11.0 °C 29.4in /  995.1hPa SW 10.5mph /  16.9km/h 17.2mph /  27.7km/h 98% 0.05in /  1.3mm
00:48 51.6 °F /  10.9 °C 51.8 °F /  11.0 °C 29.4in /  995.1hPa SSW 12.3mph /  19.8km/h 17.2mph /  27.7km/h 98% 0.05in /  1.3mm
00:53 51.6 °F /  10.9 °C 51.8 °F /  11.0 °C 29.4in /  995.1hPa SW 12.3mph /  19.8km/h 15.4mph /  24.8km/h 98% 0.06in /  1.5mm
00:55 51.6 °F /  10.9 °C 51.8 °F /  11.0 °C 29.4in /  995.1hPa SSW 14.3mph /  23.0km/h 20.4mph /  32.8km/h 98% 0.06in /  1.5mm
01:01 51.6 °F /  10.9 °C 51.8 °F /  11.0 °C 29.4in /  995.1hPa SSW 8.7mph /  14.0km/h 20.4mph /  32.8km/h 98% 0.07in /  1.8mm
01:04 51.6 °F /  10.9 °C 51.8 °F /  11.0 °C 29.4in /  995.1hPa SSW 10.3mph /  16.6km/h 20.4mph /  32.8km/h 98% 0.09in /  2.3mm
01:10 51.6 °F /  10.9 °C 51.8 °F /  11.0 °C 29.4in /  995.1hPa WSW 9.4mph /  15.1km/h 15.9mph /  25.6km/h 98% 0.1in /  2.5mm
01:12 51.6 °F /  10.9 °C 51.8 °F /  11.0 °C 29.4in /  994.1hPa SSW 8.9mph /  14.3km/h 15.9mph /  25.6km/h 98% 0.1in /  2.5mm
01:17 51.6 °F /  10.9 °C 51.8 °F /  11.0 °C 29.4in /  994.1hPa SW 12.5mph /  20.1km/h 15.9mph /  25.6km/h 98% 0.11in /  2.8mm
01:21 51.8 °F /  11.0 °C 51.8 °F /  11.0 °C 29.4in /  994.1hPa SSW 15.4mph /  24.8km/h 23.3mph /  37.5km/h 98% 0.11in /  2.8mm
01:26 51.8 °F /  11.0 °C 51.8 °F /  11.0 °C 29.3in /  993.1hPa SSW 8.7mph /  14.0km/h 23.3mph /  37.5km/h 98% 0.11in /  2.8mm
01:36 52.2 °F /  11.2 °C 51.8 °F /  11.0 °C 29.3in /  993.1hPa SSW 9.8mph /  15.8km/h 19.2mph /  30.9km/h 98% 0.13in /  3.3mm
01:39 52.2 °F /  11.2 °C 51.8 °F /  11.0 °C 29.3in /  993.1hPa SSW 15.7mph /  25.3km/h 22.4mph /  36.0km/h 98% 0.12in /  3.0mm
01:42 52.3 °F /  11.3 °C 51.8 °F /  11.0 °C 29.3in /  992.1hPa SW 11.9mph /  19.1km/h 22.4mph /  36.0km/h 98% 0.11in /  2.8mm
01:46 52.3 °F /  11.3 °C 51.8 °F /  11.0 °C 29.3in /  992.1hPa WSW 17.4mph /  28.0km/h 22.4mph /  36.0km/h 98% 0.11in /  2.8mm
01:51 52.5 °F /  11.4 °C 51.8 °F /  11.0 °C 29.3in /  992.1hPa SW 20.6mph /  33.1km/h 23.9mph /  38.5km/h 98% 0.1in /  2.5mm
01:53 52.5 °F /  11.4 °C 51.8 °F /  11.0 °C 29.3in /  992.1hPa WSW 17.4mph /  28.0km/h 23.9mph /  38.5km/h 98% 0.1in /  2.5mm
01:58 52.7 °F /  11.5 °C 53.6 °F /  12.0 °C 29.3in /  991.1hPa SSW 17.2mph /  27.7km/h 23.3mph /  37.5km/h 98% 0.09in /  2.3mm
02:00 52.9 °F /  11.6 °C 53.6 °F /  12.0 °C 29.3in /  991.1hPa SW 12.8mph /  20.6km/h 23.3mph /  37.5km/h 98% 0.09in /  2.3mm
02:05 53.1 °F /  11.7 °C 53.6 °F /  12.0 °C 29.3in /  991.1hPa WSW 10.1mph /  16.3km/h 24.6mph /  39.6km/h 98% 0.07in /  1.8mm
02:06 53.1 °F /  11.7 °C 53.6 °F /  12.0 °C 29.3in /  991.1hPa WSW 15.2mph /  24.5km/h 24.6mph /  39.6km/h 98% 0.06in /  1.5mm
02:13 53.1 °F /  11.7 °C 53.6 °F /  12.0 °C 29.3in /  991.1hPa SSW 18.6mph /  29.9km/h 24.6mph /  39.6km/h 98% 0.06in /  1.5mm
02:14 53.2 °F /  11.8 °C 53.6 °F /  12.0 °C 29.3in /  991.1hPa SSW 15.9mph /  25.6km/h 22.8mph /  36.7km/h 98% 0.06in /  1.5mm
02:20 53.4 °F /  11.9 °C 53.6 °F /  12.0 °C 29.3in /  991.1hPa SW 25.9mph /  41.7km/h 25.9mph /  41.7km/h 98% 0.06in /  1.5mm
02:22 53.6 °F /  12.0 °C 53.6 °F /  12.0 °C 29.3in /  991.1hPa WSW 17.4mph /  28.0km/h 25.9mph /  41.7km/h 98% 0.06in /  1.5mm
02:28 53.6 °F /  12.0 °C 53.6 °F /  12.0 °C 29.2in /  990.1hPa WSW 15.7mph /  25.3km/h 25.9mph /  41.7km/h 98% 0.05in /  1.3mm
02:29 53.6 °F /  12.0 °C 53.6 °F /  12.0 °C 29.2in /  990.1hPa WSW 24.6mph /  39.6km/h 25.9mph /  41.7km/h 98% 0.05in /  1.3mm
02:33 53.8 °F /  12.1 °C 53.6 °F /  12.0 °C 29.2in /  990.1hPa WSW 26.2mph /  42.2km/h 26.2mph /  42.2km/h 98% 0.03in /  0.8mm
02:38 54 °F /  12.2 °C 53.6 °F /  12.0 °C 29.2in /  990.1hPa WSW 19.2mph /  30.9km/h 26.2mph /  42.2km/h 98% 0.02in /  0.5mm
02:40 54 °F /  12.2 °C 53.6 °F /  12.0 °C 29.2in /  990.1hPa WSW 12.1mph /  19.5km/h 26.2mph /  42.2km/h 98% 0.02in /  0.5mm
02:47 54 °F /  12.2 °C 53.6 °F /  12.0 °C 29.2in /  989.1hPa WSW 16.6mph /  26.7km/h 26.6mph /  42.8km/h 98% 0.05in /  1.3mm
02:48 54 °F /  12.2 °C 53.6 °F /  12.0 °C 29.2in /  989.1hPa WSW 15.4mph /  24.8km/h 26.6mph /  42.8km/h 98% 0.06in /  1.5mm
02:53 54.1 °F /  12.3 °C 55.4 °F /  13.0 °C 29.2in /  989.1hPa WSW 17.7mph /  28.5km/h 27.7mph /  44.6km/h 98% 0.1in /  2.5mm
02:57 54.1 °F /  12.3 °C 55.4 °F /  13.0 °C 29.2in /  989.1hPa WSW 18.1mph /  29.1km/h 27.7mph /  44.6km/h 98% 0.12in /  3.0mm
03:03 54 °F /  12.2 °C 53.6 °F /  12.0 °C 29.2in /  989.1hPa West 17.4mph /  28.0km/h 22.4mph /  36.0km/h 98% 0.15in /  3.8mm
03:05 54 °F /  12.2 °C 53.6 °F /  12.0 °C 29.2in /  989.1hPa WSW 17.7mph /  28.5km/h 22.4mph /  36.0km/h 98% 0.15in /  3.8mm
03:10 54.3 °F /  12.4 °C 55.4 °F /  13.0 °C 29.2in /  989.1hPa West 26.2mph /  42.2km/h 37.4mph /  60.2km/h 98% 0.15in /  3.8mm
03:12 54.5 °F /  12.5 °C 55.4 °F /  13.0 °C 29.2in /  989.1hPa West 20.1mph /  32.3km/h 39.4mph /  63.4km/h 98% 0.16in /  4.1mm
03:16 54.5 °F /  12.5 °C 55.4 °F /  13.0 °C 29.2in /  989.1hPa WSW 30mph /  48.3km/h 39.4mph /  63.4km/h 98% 0.17in /  4.3mm
03:21 54.3 °F /  12.4 °C 55.4 °F /  13.0 °C 29.2in /  989.1hPa West 29.5mph /  47.5km/h 35.3mph /  56.8km/h 98% 0.18in /  4.6mm
03:23 54.3 °F /  12.4 °C 55.4 °F /  13.0 °C 29.2in /  989.1hPa West 30.9mph /  49.7km/h 35.3mph /  56.8km/h 98% 0.18in /  4.6mm
03:28 54.1 °F /  12.3 °C 53.6 °F /  12.0 °C 29.2in /  989.1hPa WNW 23.9mph /  38.5km/h 41.6mph /  66.9km/h 95% 0.18in /  4.6mm
03:32 54 °F /  12.2 °C 51.8 °F /  11.0 °C 29.2in /  989.1hPa West 24.6mph /  39.6km/h 41.6mph /  66.9km/h 93% 0.18in /  4.6mm
03:37 53.6 °F /  12.0 °C 51.8 °F /  11.0 °C 29.2in /  989.1hPa West 25.1mph /  40.4km/h 45.9mph /  73.9km/h 91% 0.18in /  4.6mm
03:38 53.4 °F /  11.9 °C 51.8 °F /  11.0 °C 29.2in /  989.1hPa West 23mph /  37.0km/h 45.9mph /  73.9km/h 91% 0.18in /  4.6mm
03:39 53.4 °F /  11.9 °C 51.8 °F /  11.0 °C 29.2in /  989.1hPa West 28.6mph /  46.0km/h 45.9mph /  73.9km/h 91% 0.18in /  4.6mm
03:48 53.2 °F /  11.8 °C 50 °F /  10.0 °C 29.2in /  989.1hPa West 20.6mph /  33.1km/h 28.6mph /  46.0km/h 91% 0.15in /  3.8mm
03:50 53.1 °F /  11.7 °C 50 °F /  10.0 °C 29.2in /  989.1hPa WSW 23.7mph /  38.1km/h 30.6mph /  49.2km/h 91% 0.13in /  3.3mm
03:55 53.1 °F /  11.7 °C 50 °F /  10.0 °C 29.2in /  989.1hPa West 16.1mph /  25.9km/h 30.6mph /  49.2km/h 91% 0.1in /  2.5mm
04:01 53.1 °F /  11.7 °C 50 °F /  10.0 °C 29.3in /  991.1hPa West 26.8mph /  43.1km/h 28mph /  45.1km/h 90% 0.06in /  1.5mm
04:07 53.1 °F /  11.7 °C 50 °F /  10.0 °C 29.3in /  991.1hPa West 18.8mph /  30.2km/h 30.6mph /  49.2km/h 88% 0.06in /  1.5mm
04:08 53.1 °F /  11.7 °C 50 °F /  10.0 °C 29.3in /  991.1hPa West 22.6mph /  36.4km/h 30.6mph /  49.2km/h 87% 0.06in /  1.5mm
04:14 53.1 °F /  11.7 °C 48.2 °F /  9.0 °C 29.2in /  989.1hPa WSW 19.2mph /  30.9km/h 32mph /  51.5km/h 86% 0.03in /  0.8mm
04:15 52.9 °F /  11.6 °C 48.2 °F /  9.0 °C 29.2in /  989.1hPa West 23.3mph /  37.5km/h 32mph /  51.5km/h 86% 0.03in /  0.8mm
04:20 53.1 °F /  11.7 °C 48.2 °F /  9.0 °C 29.2in /  989.1hPa West 24.4mph /  39.3km/h 32mph /  51.5km/h 86% 0.01in /  0.3mm
04:25 53.1 °F /  11.7 °C 48.2 °F /  9.0 °C 29.2in /  989.1hPa WSW 23.5mph /  37.8km/h 32.4mph /  52.1km/h 85% 0.01in /  0.3mm
04:30 52.9 °F /  11.6 °C 48.2 °F /  9.0 °C 29.2in /  990.1hPa WSW 32.7mph /  52.6km/h 32.7mph /  52.6km/h 85% 0.01in /  0.3mm
04:31 52.9 °F /  11.6 °C 48.2 °F /  9.0 °C 29.2in /  990.1hPa West 23.7mph /  38.1km/h 32.7mph /  52.6km/h 85% 0.01in /  0.3mm
04:36 52.7 °F /  11.5 °C 48.2 °F /  9.0 °C 29.2in /  990.1hPa West 28.4mph /  45.7km/h 34.4mph /  55.3km/h 83% 0.01in /  0.3mm
04:40 52.7 °F /  11.5 °C 48.2 °F /  9.0 °C 29.2in /  990.1hPa WSW 26.4mph /  42.5km/h 34.4mph /  55.3km/h 81% 0.01in /  0.3mm
04:44 52.5 °F /  11.4 °C 46.4 °F /  8.0 °C 29.2in /  990.1hPa WSW 22.8mph /  36.7km/h 34.4mph /  55.3km/h 80% 0.01in /  0.3mm
04:49 52.3 °F /  11.3 °C 46.4 °F /  8.0 °C 29.2in /  990.1hPa West 22.8mph /  36.7km/h 32mph /  51.5km/h 79% 0in /  0.0mm
04:51 52.3 °F /  11.3 °C 46.4 °F /  8.0 °C 29.2in /  990.1hPa WSW 29.3mph /  47.1km/h 30.2mph /  48.6km/h 79% 0in /  0.0mm
04:56 52.3 °F /  11.3 °C 46.4 °F /  8.0 °C 29.2in /  990.1hPa WSW 19.5mph /  31.4km/h 29.8mph /  47.9km/h 79% 0in /  0.0mm
04:59 52.3 °F /  11.3 °C 46.4 °F /  8.0 °C 29.2in /  990.1hPa West 21.3mph /  34.3km/h 29.8mph /  47.9km/h 79% 0in /  0.0mm
05:04 52.3 °F /  11.3 °C 46.4 °F /  8.0 °C 29.2in /  990.1hPa West 22.8mph /  36.7km/h 30.9mph /  49.7km/h 79% 0in /  0.0mm
05:09 52.3 °F /  11.3 °C 46.4 °F /  8.0 °C 29.2in /  990.1hPa WSW 17.4mph /  28.0km/h 37.6mph /  60.5km/h 80% 0in /  0.0mm
05:10 52.3 °F /  11.3 °C 46.4 °F /  8.0 °C 29.2in /  990.1hPa West 27.3mph /  43.9km/h 37.6mph /  60.5km/h 80% 0in /  0.0mm
05:15 52.3 °F /  11.3 °C 46.4 °F /  8.0 °C 29.2in /  990.1hPa WSW 27.7mph /  44.6km/h 35.3mph /  56.8km/h 79% 0in /  0.0mm
05:20 52.3 °F /  11.3 °C 46.4 °F /  8.0 °C 29.2in /  990.1hPa West 24.4mph /  39.3km/h 37.6mph /  60.5km/h 77% 0in /  0.0mm
05:21 52.3 °F /  11.3 °C 44.6 °F /  7.0 °C 29.2in /  990.1hPa WSW 23.5mph /  37.8km/h 37.6mph /  60.5km/h 76% 0in /  0.0mm
05:26 52.2 °F /  11.2 °C 44.6 °F /  7.0 °C 29.2in /  988.0hPa West 23mph /  37.0km/h 37.6mph /  60.5km/h 75% 0in /  0.0mm
05:28 52 °F /  11.1 °C 44.6 °F /  7.0 °C 29.2in /  988.0hPa WSW 28.4mph /  45.7km/h 30.6mph /  49.2km/h 76% 0in /  0.0mm
05:33 52 °F /  11.1 °C 44.6 °F /  7.0 °C 29.2in /  988.0hPa WSW 27.5mph /  44.2km/h 32.4mph /  52.1km/h 75% 0in /  0.0mm
05:38 51.8 °F /  11.0 °C 44.6 °F /  7.0 °C 29.2in /  988.0hPa WSW 27.3mph /  43.9km/h 32.4mph /  52.1km/h 74% 0in /  0.0mm
05:40 51.8 °F /  11.0 °C 42.8 °F /  6.0 °C 29.2in /  988.0hPa WSW 27.5mph /  44.2km/h 28.4mph /  45.7km/h 73% 0in /  0.0mm
05:45 51.6 °F /  10.9 °C 42.8 °F /  6.0 °C 29.2in /  990.1hPa WSW 25.5mph /  41.0km/h 30.2mph /  48.6km/h 71% 0in /  0.0mm
05:46 51.6 °F /  10.9 °C 42.8 °F /  6.0 °C 29.2in /  990.1hPa West 29.8mph /  47.9km/h 30.2mph /  48.6km/h 70% 0in /  0.0mm
05:51 51.4 °F /  10.8 °C 41 °F /  5.0 °C 29.2in /  990.1hPa WSW 39.4mph /  63.4km/h 39.4mph /  63.4km/h 65% 0in /  0.0mm
05:53 51.4 °F /  10.8 °C 39.2 °F /  4.0 °C 29.2in /  990.1hPa West 24.2mph /  38.9km/h 39.4mph /  63.4km/h 64% 0in /  0.0mm
05:58 51.3 °F /  10.7 °C 39.2 °F /  4.0 °C 29.2in /  989.1hPa West 23mph /  37.0km/h 39.4mph /  63.4km/h 64% 0in /  0.0mm
05:59 51.3 °F /  10.7 °C 39.2 °F /  4.0 °C 29.2in /  989.1hPa WSW 29.3mph /  47.1km/h 39.4mph /  63.4km/h 64% 0in /  0.0mm
06:01 51.3 °F /  10.7 °C 39.2 °F /  4.0 °C 29.2in /  989.1hPa WSW 37.1mph /  59.7km/h 37.1mph /  59.7km/h 63% 0in /  0.0mm
06:04 51.1 °F /  10.6 °C 39.2 °F /  4.0 °C 29.2in /  989.1hPa West 17.4mph /  28.0km/h 37.8mph /  60.8km/h 64% 0in /  0.0mm
06:09 51.1 °F /  10.6 °C 39.2 °F /  4.0 °C 29.2in /  989.1hPa WSW 30.6mph /  49.2km/h 37.8mph /  60.8km/h 63% 0in /  0.0mm
06:10 51.1 °F /  10.6 °C 39.2 °F /  4.0 °C 29.2in /  989.1hPa WSW 24.6mph /  39.6km/h 37.8mph /  60.8km/h 63% 0in /  0.0mm
06:15 50.7 °F /  10.4 °C 39.2 °F /  4.0 °C 29.2in /  989.1hPa West 37.1mph /  59.7km/h 37.1mph /  59.7km/h 64% 0in /  0.0mm
06:16 50.7 °F /  10.4 °C 39.2 °F /  4.0 °C 29.2in /  989.1hPa SW 22.4mph /  36.0km/h 37.1mph /  59.7km/h 64% 0in /  0.0mm
06:17 50.7 °F /  10.4 °C 39.2 °F /  4.0 °C 29.2in /  989.1hPa WSW 25.7mph /  41.4km/h 37.1mph /  59.7km/h 64% 0in /  0.0mm
06:22 50.5 °F /  10.3 °C 39.2 °F /  4.0 °C 29.2in /  989.1hPa West 26.6mph /  42.8km/h 37.1mph /  59.7km/h 65% 0in /  0.0mm
06:24 50.5 °F /  10.3 °C 39.2 °F /  4.0 °C 29.2in /  989.1hPa West 28.4mph /  45.7km/h 37.1mph /  59.7km/h 65% 0in /  0.0mm
06:30 50.5 °F /  10.3 °C 39.2 °F /  4.0 °C 29.2in /  990.1hPa West 26.2mph /  42.2km/h 34.2mph /  55.0km/h 65% 0in /  0.0mm
06:35 50.5 °F /  10.3 °C 39.2 °F /  4.0 °C 29.2in /  990.1hPa West 13.9mph /  22.4km/h 30.6mph /  49.2km/h 66% 0in /  0.0mm
06:38 50.4 °F /  10.2 °C 41 °F /  5.0 °C 29.2in /  990.1hPa WSW 15.2mph /  24.5km/h 30.6mph /  49.2km/h 68% 0in /  0.0mm
06:43 48.6 °F /  9.2 °C 41 °F /  5.0 °C 29.3in /  991.1hPa West 23.7mph /  38.1km/h 32mph /  51.5km/h 72% 0in /  0.0mm
06:44 48.2 °F /  9.0 °C 39.2 °F /  4.0 °C 29.3in /  991.1hPa SSW 15.4mph /  24.8km/h 32mph /  51.5km/h 71% 0in /  0.0mm
06:50 47.1 °F /  8.4 °C 39.2 °F /  4.0 °C 29.3in /  991.1hPa West 10.5mph /  16.9km/h 32mph /  51.5km/h 73% 0in /  0.0mm
06:52 46.8 °F /  8.2 °C 39.2 °F /  4.0 °C 29.3in /  991.1hPa West 19.7mph /  31.7km/h 23.7mph /  38.1km/h 74% 0in /  0.0mm
06:57 46.4 °F /  8.0 °C 39.2 °F /  4.0 °C 29.2in /  990.1hPa West 14.5mph /  23.3km/h 23.3mph /  37.5km/h 76% 0in /  0.0mm
06:58 46.4 °F /  8.0 °C 39.2 °F /  4.0 °C 29.2in /  990.1hPa WSW 22.6mph /  36.4km/h 23.3mph /  37.5km/h 76% 0in /  0.0mm
07:02 46.2 °F /  7.9 °C 39.2 °F /  4.0 °C 29.2in /  990.1hPa West 10.7mph /  17.2km/h 25.3mph /  40.7km/h 78% 0in /  0.0mm
07:04 46.2 °F /  7.9 °C 39.2 °F /  4.0 °C 29.2in /  990.1hPa WNW 13mph /  20.9km/h 25.3mph /  40.7km/h 78% 0in /  0.0mm
07:09 46.2 °F /  7.9 °C 41 °F /  5.0 °C 29.2in /  990.1hPa WNW 8.1mph /  13.0km/h 25.3mph /  40.7km/h 79% 0in /  0.0mm
07:14 46.2 °F /  7.9 °C 41 °F /  5.0 °C 29.2in /  990.1hPa West 17.7mph /  28.5km/h 17.7mph /  28.5km/h 80% 0in /  0.0mm
07:19 46.2 °F /  7.9 °C 41 °F /  5.0 °C 29.2in /  990.1hPa West 19.9mph /  32.0km/h 19.9mph /  32.0km/h 81% 0in /  0.0mm
07:20 46.2 °F /  7.9 °C 41 °F /  5.0 °C 29.2in /  990.1hPa West 15.4mph /  24.8km/h 19.9mph /  32.0km/h 81% 0in /  0.0mm
07:25 46.2 °F /  7.9 °C 41 °F /  5.0 °C 29.2in /  990.1hPa WSW 16.8mph /  27.0km/h 21.9mph /  35.2km/h 81% 0in /  0.0mm
07:30 46 °F /  7.8 °C 41 °F /  5.0 °C 29.2in /  990.1hPa West 11mph /  17.7km/h 21.9mph /  35.2km/h 82% 0in /  0.0mm
07:31 46 °F /  7.8 °C 41 °F /  5.0 °C 29.2in /  990.1hPa West 12.8mph /  20.6km/h 21.9mph /  35.2km/h 82% 0in /  0.0mm
07:32 46 °F /  7.8 °C 41 °F /  5.0 °C 29.2in /  990.1hPa West 10.3mph /  16.6km/h 21.9mph /  35.2km/h 82% 0in /  0.0mm
07:36 46.2 °F /  7.9 °C 41 °F /  5.0 °C 29.2in /  990.1hPa WNW 23.7mph /  38.1km/h 23.7mph /  38.1km/h 82% 0in /  0.0mm
07:41 46.8 °F /  8.2 °C 41 °F /  5.0 °C 29.3in /  991.1hPa WSW 20.6mph /  33.1km/h 31.3mph /  50.4km/h 78% 0in /  0.0mm
07:42 46.9 °F /  8.3 °C 41 °F /  5.0 °C 29.3in /  991.1hPa West 24.6mph /  39.6km/h 31.3mph /  50.4km/h 78% 0in /  0.0mm
07:47 47.1 °F /  8.4 °C 41 °F /  5.0 °C 29.3in /  991.1hPa WSW 23.9mph /  38.5km/h 31.3mph /  50.4km/h 77% 0in /  0.0mm
07:48 47.3 °F /  8.5 °C 41 °F /  5.0 °C 29.3in /  991.1hPa WSW 24.2mph /  38.9km/h 31.3mph /  50.4km/h 76% 0in /  0.0mm
07:53 47.5 °F /  8.6 °C 41 °F /  5.0 °C 29.3in /  991.1hPa West 17.7mph /  28.5km/h 32.2mph /  51.8km/h 76% 0in /  0.0mm
07:58 47.7 °F /  8.7 °C 41 °F /  5.0 °C 29.3in /  991.1hPa West 22.8mph /  36.7km/h 32.2mph /  51.8km/h 76% 0in /  0.0mm
08:00 47.7 °F /  8.7 °C 41 °F /  5.0 °C 29.3in /  991.1hPa West 19.7mph /  31.7km/h 32.2mph /  51.8km/h 76% 0in /  0.0mm
08:05 47.7 °F /  8.7 °C 41 °F /  5.0 °C 29.3in /  991.1hPa West 20.8mph /  33.5km/h 32.4mph /  52.1km/h 75% 0in /  0.0mm
08:10 47.8 °F /  8.8 °C 39.2 °F /  4.0 °C 29.3in /  991.1hPa West 23.5mph /  37.8km/h 33.1mph /  53.3km/h 71% 0in /  0.0mm
08:13 48 °F /  8.9 °C 39.2 °F /  4.0 °C 29.3in /  991.1hPa WSW 29.8mph /  47.9km/h 33.1mph /  53.3km/h 70% 0in /  0.0mm
08:18 48 °F /  8.9 °C 39.2 °F /  4.0 °C 29.3in /  991.1hPa West 23.3mph /  37.5km/h 33.1mph /  53.3km/h 70% 0in /  0.0mm
08:19 48 °F /  8.9 °C 39.2 °F /  4.0 °C 29.3in /  991.1hPa West 25.9mph /  41.7km/h 32.7mph /  52.6km/h 70% 0in /  0.0mm
08:22 48 °F /  8.9 °C 39.2 °F /  4.0 °C 29.3in /  991.1hPa WSW 18.1mph /  29.1km/h 32.7mph /  52.6km/h 70% 0in /  0.0mm
08:27 47.8 °F /  8.8 °C 39.2 °F /  4.0 °C 29.3in /  992.1hPa West 31.8mph /  51.2km/h 31.8mph /  51.2km/h 71% 0in /  0.0mm
08:32 47.8 °F /  8.8 °C 39.2 °F /  4.0 °C 29.3in /  992.1hPa West 12.5mph /  20.1km/h 32mph /  51.5km/h 68% 0in /  0.0mm
08:36 47.8 °F /  8.8 °C 39.2 °F /  4.0 °C 29.3in /  992.1hPa West 17.4mph /  28.0km/h 32mph /  51.5km/h 68% 0in /  0.0mm
08:39 47.7 °F /  8.7 °C 37.4 °F /  3.0 °C 29.3in /  992.1hPa WSW 24.4mph /  39.3km/h 32mph /  51.5km/h 69% 0in /  0.0mm
08:42 47.5 °F /  8.6 °C 37.4 °F /  3.0 °C 29.3in /  993.1hPa West 19.5mph /  31.4km/h 29.1mph /  46.8km/h 69% 0in /  0.0mm
08:47 47.3 °F /  8.5 °C 37.4 °F /  3.0 °C 29.3in /  993.1hPa WSW 15.4mph /  24.8km/h 27.7mph /  44.6km/h 69% 0in /  0.0mm
08:50 47.3 °F /  8.5 °C 37.4 °F /  3.0 °C 29.3in /  993.1hPa WNW 19.7mph /  31.7km/h 32.2mph /  51.8km/h 69% 0in /  0.0mm
08:55 47.1 °F /  8.4 °C 37.4 °F /  3.0 °C 29.3in /  993.1hPa West 27.5mph /  44.2km/h 32.7mph /  52.6km/h 70% 0in /  0.0mm
09:01 47.3 °F /  8.5 °C 37.4 °F /  3.0 °C 29.3in /  993.1hPa West 33.1mph /  53.3km/h 33.1mph /  53.3km/h 69% 0in /  0.0mm
09:06 47.1 °F /  8.4 °C 37.4 °F /  3.0 °C 29.3in /  993.1hPa WSW 17.4mph /  28.0km/h 33.1mph /  53.3km/h 70% 0in /  0.0mm
09:10 47.1 °F /  8.4 °C 37.4 °F /  3.0 °C 29.3in /  993.1hPa West 22.8mph /  36.7km/h 33.3mph /  53.6km/h 70% 0in /  0.0mm
09:16 47.3 °F /  8.5 °C 37.4 °F /  3.0 °C 29.3in /  993.1hPa West 12.3mph /  19.8km/h 36.2mph /  58.2km/h 69% 0in /  0.0mm
09:18 47.1 °F /  8.4 °C 37.4 °F /  3.0 °C 29.3in /  993.1hPa West 16.1mph /  25.9km/h 36.2mph /  58.2km/h 70% 0in /  0.0mm
09:24 47.3 °F /  8.5 °C 37.4 °F /  3.0 °C 29.3in /  993.1hPa West 22.1mph /  35.6km/h 32.7mph /  52.6km/h 69% 0in /  0.0mm
09:27 47.3 °F /  8.5 °C 37.4 °F /  3.0 °C 29.3in /  993.1hPa West 12.5mph /  20.1km/h 32.9mph /  52.9km/h 69% 0in /  0.0mm
09:30 47.3 °F /  8.5 °C 37.4 °F /  3.0 °C 29.3in /  993.1hPa West 17.7mph /  28.5km/h 32.9mph /  52.9km/h 69% 0in /  0.0mm
09:34 47.3 °F /  8.5 °C 37.4 °F /  3.0 °C 29.3in /  993.1hPa West 13mph /  20.9km/h 32.9mph /  52.9km/h 69% 0in /  0.0mm
09:36 47.3 °F /  8.5 °C 37.4 °F /  3.0 °C 29.3in /  993.1hPa WSW 27.7mph /  44.6km/h 32.9mph /  52.9km/h 69% 0in /  0.0mm
09:41 47.3 °F /  8.5 °C 37.4 °F /  3.0 °C 29.4in /  994.1hPa WSW 27.5mph /  44.2km/h 27.7mph /  44.6km/h 69% 0in /  0.0mm
09:46 47.3 °F /  8.5 °C 37.4 °F /  3.0 °C 29.4in /  994.1hPa West 22.8mph /  36.7km/h 27.7mph /  44.6km/h 69% 0in /  0.0mm
09:49 47.3 °F /  8.5 °C 37.4 °F /  3.0 °C 29.4in /  994.1hPa WSW 25.9mph /  41.7km/h 32.2mph /  51.8km/h 69% 0in /  0.0mm
09:54 47.5 °F /  8.6 °C 37.4 °F /  3.0 °C 29.4in /  994.1hPa West 24.4mph /  39.3km/h 35.1mph /  56.5km/h 69% 0in /  0.0mm
09:57 47.5 °F /  8.6 °C 37.4 °F /  3.0 °C 29.4in /  994.1hPa WSW 13.4mph /  21.6km/h 35.1mph /  56.5km/h 68% 0in /  0.0mm
10:02 47.5 °F /  8.6 °C 37.4 °F /  3.0 °C 29.4in /  994.1hPa West 27.1mph /  43.6km/h 30.4mph /  48.9km/h 69% 0in /  0.0mm
10:07 47.7 °F /  8.7 °C 37.4 °F /  3.0 °C 29.4in /  994.1hPa WSW 23.7mph /  38.1km/h 30.4mph /  48.9km/h 69% 0in /  0.0mm
10:08 47.7 °F /  8.7 °C 39.2 °F /  4.0 °C 29.4in /  994.1hPa West 28mph /  45.1km/h 30.4mph /  48.9km/h 70% 0in /  0.0mm
10:13 47.8 °F /  8.8 °C 39.2 °F /  4.0 °C 29.4in /  994.1hPa West 23mph /  37.0km/h 31.1mph /  50.0km/h 70% 0in /  0.0mm
10:19 48 °F /  8.9 °C 39.2 °F /  4.0 °C 29.4in /  994.1hPa West 24.6mph /  39.6km/h 31.1mph /  50.0km/h 70% 0in /  0.0mm
10:20 48 °F /  8.9 °C 39.2 °F /  4.0 °C 29.4in /  994.1hPa West 32mph /  51.5km/h 32mph /  51.5km/h 70% 0in /  0.0mm
10:22 48.2 °F /  9.0 °C 39.2 °F /  4.0 °C 29.4in /  994.1hPa West 24.2mph /  38.9km/h 32mph /  51.5km/h 70% 0in /  0.0mm
10:27 48.2 °F /  9.0 °C 39.2 °F /  4.0 °C 29.4in /  995.1hPa West 24.2mph /  38.9km/h 32mph /  51.5km/h 70% 0in /  0.0mm
10:32 48 °F /  8.9 °C 39.2 °F /  4.0 °C 29.4in /  995.1hPa West 32.2mph /  51.8km/h 32.4mph /  52.1km/h 70% 0in /  0.0mm
10:33 48 °F /  8.9 °C 39.2 °F /  4.0 °C 29.4in /  995.1hPa WSW 29.5mph /  47.5km/h 32.4mph /  52.1km/h 70% 0in /  0.0mm
10:38 48.4 °F /  9.1 °C 39.2 °F /  4.0 °C 29.4in /  995.1hPa West 29.8mph /  47.9km/h 32.4mph /  52.1km/h 70% 0in /  0.0mm
10:43 48.7 °F /  9.3 °C 39.2 °F /  4.0 °C 29.4in /  995.1hPa West 22.6mph /  36.4km/h 32.7mph /  52.6km/h 68% 0in /  0.0mm
10:48 48.7 °F /  9.3 °C 39.2 °F /  4.0 °C 29.4in /  995.1hPa West 22.6mph /  36.4km/h 32.7mph /  52.6km/h 68% 0in /  0.0mm
10:52 48.7 °F /  9.3 °C 39.2 °F /  4.0 °C 29.4in /  995.1hPa WSW 26.2mph /  42.2km/h 32.4mph /  52.1km/h 68% 0in /  0.0mm
10:57 48.7 °F /  9.3 °C 39.2 °F /  4.0 °C 29.4in /  995.1hPa WSW 31.1mph /  50.0km/h 32.4mph /  52.1km/h 67% 0in /  0.0mm
11:02 48.7 °F /  9.3 °C 39.2 °F /  4.0 °C 29.4in /  995.1hPa West 30mph /  48.3km/h 31.1mph /  50.0km/h 68% 0in /  0.0mm
11:05 48.7 °F /  9.3 °C 39.2 °F /  4.0 °C 29.4in /  995.1hPa WSW 20.4mph /  32.8km/h 34.4mph /  55.3km/h 67% 0in /  0.0mm
11:08 48.7 °F /  9.3 °C 39.2 °F /  4.0 °C 29.4in /  995.1hPa West 19.7mph /  31.7km/h 35.1mph /  56.5km/h 67% 0in /  0.0mm
11:11 48.9 °F /  9.4 °C 39.2 °F /  4.0 °C 29.4in /  996.2hPa WSW 25.3mph /  40.7km/h 35.1mph /  56.5km/h 67% 0in /  0.0mm
11:14 48.9 °F /  9.4 °C 39.2 °F /  4.0 °C 29.4in /  996.2hPa West 23.9mph /  38.5km/h 35.1mph /  56.5km/h 68% 0in /  0.0mm
11:17 49.1 °F /  9.5 °C 39.2 °F /  4.0 °C 29.4in /  996.2hPa West 28.4mph /  45.7km/h 32.4mph /  52.1km/h 68% 0in /  0.0mm
11:22 49.1 °F /  9.5 °C 39.2 °F /  4.0 °C 29.4in /  996.2hPa West 22.4mph /  36.0km/h 32.4mph /  52.1km/h 68% 0in /  0.0mm
11:23 49.1 °F /  9.5 °C 39.2 °F /  4.0 °C 29.4in /  996.2hPa WSW 19.5mph /  31.4km/h 32.4mph /  52.1km/h 68% 0in /  0.0mm
11:29 49.1 °F /  9.5 °C 39.2 °F /  4.0 °C 29.4in /  996.8hPa WSW 16.3mph /  26.2km/h 28mph /  45.1km/h 68% 0in /  0.0mm
11:30 49.1 °F /  9.5 °C 39.2 °F /  4.0 °C 29.4in /  996.8hPa WSW 15.2mph /  24.5km/h 28mph /  45.1km/h 68% 0in /  0.0mm
11:35 49.1 °F /  9.5 °C 39.2 °F /  4.0 °C 29.4in /  996.8hPa West 22.4mph /  36.0km/h 28.9mph /  46.5km/h 69% 0in /  0.0mm
11:40 49.3 °F /  9.6 °C 39.2 °F /  4.0 °C 29.4in /  996.8hPa WNW 24.2mph /  38.9km/h 28.9mph /  46.5km/h 67% 0in /  0.0mm
11:43 49.5 °F /  9.7 °C 39.2 °F /  4.0 °C 29.4in /  996.8hPa WNW 24.2mph /  38.9km/h 29.5mph /  47.5km/h 68% 0in /  0.0mm
11:44 49.5 °F /  9.7 °C 39.2 °F /  4.0 °C 29.4in /  996.8hPa WSW 23mph /  37.0km/h 29.5mph /  47.5km/h 68% 0in /  0.0mm
11:49 49.5 °F /  9.7 °C 39.2 °F /  4.0 °C 29.4in /  996.8hPa WSW 30mph /  48.3km/h 30mph /  48.3km/h 67% 0in /  0.0mm
11:50 49.5 °F /  9.7 °C 39.2 °F /  4.0 °C 29.4in /  996.8hPa WNW 12.8mph /  20.6km/h 30mph /  48.3km/h 67% 0in /  0.0mm
11:58 49.5 °F /  9.7 °C 39.2 °F /  4.0 °C 29.4in /  996.8hPa WSW 23.3mph /  37.5km/h 33.6mph /  54.1km/h 65% 0in /  0.0mm
12:04 49.5 °F /  9.7 °C 39.2 °F /  4.0 °C 29.4in /  996.8hPa West 22.1mph /  35.6km/h 36.7mph /  59.1km/h 66% 0in /  0.0mm
12:08 49.5 °F /  9.7 °C 37.4 °F /  3.0 °C 29.4in /  996.8hPa WNW 14.5mph /  23.3km/h 36.7mph /  59.1km/h 64% 0in /  0.0mm
12:18 49.5 °F /  9.7 °C 39.2 °F /  4.0 °C 29.4in /  996.8hPa West 22.6mph /  36.4km/h 30.4mph /  48.9km/h 66% 0in /  0.0mm
12:19 49.6 °F /  9.8 °C 39.2 °F /  4.0 °C 29.4in /  996.8hPa West 15.9mph /  25.6km/h 30.4mph /  48.9km/h 67% 0in /  0.0mm
12:24 49.5 °F /  9.7 °C 39.2 °F /  4.0 °C 29.4in /  996.8hPa WNW 13mph /  20.9km/h 28.4mph /  45.7km/h 67% 0in /  0.0mm
12:26 49.5 °F /  9.7 °C 39.2 °F /  4.0 °C 29.5in /  997.9hPa West 30.4mph /  48.9km/h 30.4mph /  48.9km/h 66% 0in /  0.0mm
12:34 49.6 °F /  9.8 °C 39.2 °F /  4.0 °C 29.5in /  997.9hPa WSW 30.9mph /  49.7km/h 32mph /  51.5km/h 66% 0in /  0.0mm
12:40 49.5 °F /  9.7 °C 39.2 °F /  4.0 °C 29.5in /  997.9hPa West 30.6mph /  49.2km/h 32.2mph /  51.8km/h 66% 0in /  0.0mm
12:46 49.5 °F /  9.7 °C 39.2 °F /  4.0 °C 29.5in /  997.9hPa West 13.2mph /  21.2km/h 30.6mph /  49.2km/h 66% 0in /  0.0mm
12:51 49.6 °F /  9.8 °C 39.2 °F /  4.0 °C 29.5in /  997.9hPa WSW 25.3mph /  40.7km/h 28.9mph /  46.5km/h 66% 0in /  0.0mm
12:56 49.6 °F /  9.8 °C 39.2 °F /  4.0 °C 29.5in /  997.9hPa West 11mph /  17.7km/h 28.9mph /  46.5km/h 66% 0in /  0.0mm
12:57 49.6 °F /  9.8 °C 39.2 °F /  4.0 °C 29.5in /  997.9hPa West 11mph /  17.7km/h 28.9mph /  46.5km/h 66% 0in /  0.0mm
13:02 49.8 °F /  9.9 °C 41 °F /  5.0 °C 29.5in /  997.9hPa West 21mph /  33.8km/h 28.4mph /  45.7km/h 68% 0in /  0.0mm
13:06 49.6 °F /  9.8 °C 39.2 °F /  4.0 °C 29.5in /  997.9hPa West 25.5mph /  41.0km/h 25.5mph /  41.0km/h 68% 0in /  0.0mm
13:10 49.6 °F /  9.8 °C 39.2 °F /  4.0 °C 29.5in /  997.9hPa West 18.1mph /  29.1km/h 27.7mph /  44.6km/h 69% 0in /  0.0mm
13:12 49.6 °F /  9.8 °C 41 °F /  5.0 °C 29.5in /  997.9hPa West 23mph /  37.0km/h 27.7mph /  44.6km/h 70% 0in /  0.0mm
13:17 49.6 °F /  9.8 °C 41 °F /  5.0 °C 29.5in /  997.9hPa WSW 19mph /  30.6km/h 32.2mph /  51.8km/h 70% 0in /  0.0mm
13:20 49.5 °F /  9.7 °C 41 °F /  5.0 °C 29.5in /  997.9hPa WSW 18.1mph /  29.1km/h 32.2mph /  51.8km/h 70% 0in /  0.0mm
13:24 49.5 °F /  9.7 °C 39.2 °F /  4.0 °C 29.5in /  997.9hPa WSW 22.8mph /  36.7km/h 30.6mph /  49.2km/h 69% 0in /  0.0mm
13:29 49.5 °F /  9.7 °C 41 °F /  5.0 °C 29.5in /  998.9hPa West 16.8mph /  27.0km/h 28.6mph /  46.0km/h 71% 0in /  0.0mm
13:31 49.5 °F /  9.7 °C 41 °F /  5.0 °C 29.5in /  998.9hPa WSW 17.4mph /  28.0km/h 26.4mph /  42.5km/h 71% 0in /  0.0mm
13:36 49.5 °F /  9.7 °C 41 °F /  5.0 °C 29.5in /  998.9hPa WNW 20.8mph /  33.5km/h 26.6mph /  42.8km/h 70% 0in /  0.0mm
13:41 49.5 °F /  9.7 °C 41 °F /  5.0 °C 29.5in /  997.9hPa West 24.4mph /  39.3km/h 27.1mph /  43.6km/h 70% 0in /  0.0mm
13:43 49.5 °F /  9.7 °C 41 °F /  5.0 °C 29.5in /  997.9hPa West 26.4mph /  42.5km/h 27.1mph /  43.6km/h 70% 0in /  0.0mm
13:48 49.6 °F /  9.8 °C 41 °F /  5.0 °C 29.5in /  997.9hPa West 17.7mph /  28.5km/h 27.7mph /  44.6km/h 71% 0in /  0.0mm
13:49 49.6 °F /  9.8 °C 41 °F /  5.0 °C 29.5in /  997.9hPa WNW 24.6mph /  39.6km/h 27.7mph /  44.6km/h 71% 0in /  0.0mm
13:53 49.8 °F /  9.9 °C 41 °F /  5.0 °C 29.5in /  997.9hPa West 22.6mph /  36.4km/h 27.7mph /  44.6km/h 71% 0in /  0.0mm
13:55 49.8 °F /  9.9 °C 41 °F /  5.0 °C 29.5in /  997.9hPa West 17.7mph /  28.5km/h 27.5mph /  44.2km/h 71% 0in /  0.0mm
14:00 49.8 °F /  9.9 °C 41 °F /  5.0 °C 29.5in /  999.9hPa West 21.5mph /  34.6km/h 27.7mph /  44.6km/h 70% 0in /  0.0mm
14:04 50 °F /  10.0 °C 41 °F /  5.0 °C 29.5in /  999.9hPa WSW 16.1mph /  25.9km/h 32.7mph /  52.6km/h 71% 0in /  0.0mm
14:09 50 °F /  10.0 °C 41 °F /  5.0 °C 29.5in /  999.9hPa WSW 20.6mph /  33.1km/h 32.7mph /  52.6km/h 71% 0in /  0.0mm
14:14 50 °F /  10.0 °C 41 °F /  5.0 °C 29.5in /  998.9hPa West 21.9mph /  35.2km/h 30.6mph /  49.2km/h 71% 0in /  0.0mm
14:17 50 °F /  10.0 °C 41 °F /  5.0 °C 29.5in /  998.9hPa West 20.1mph /  32.3km/h 30.6mph /  49.2km/h 71% 0in /  0.0mm
14:19 50 °F /  10.0 °C 42.8 °F /  6.0 °C 29.5in /  998.9hPa WSW 23.3mph /  37.5km/h 30.6mph /  49.2km/h 72% 0in /  0.0mm
14:24 50 °F /  10.0 °C 42.8 °F /  6.0 °C 29.5in /  998.9hPa WSW 20.6mph /  33.1km/h 30.9mph /  49.7km/h 72% 0in /  0.0mm
14:29 50.2 °F /  10.1 °C 41 °F /  5.0 °C 29.5in /  998.9hPa West 27.3mph /  43.9km/h 30.9mph /  49.7km/h 71% 0in /  0.0mm
14:31 50.2 °F /  10.1 °C 41 °F /  5.0 °C 29.5in /  998.9hPa West 14.8mph /  23.8km/h 30.9mph /  49.7km/h 71% 0in /  0.0mm
14:32 50.4 °F /  10.2 °C 42.8 °F /  6.0 °C 29.5in /  998.9hPa WSW 19.7mph /  31.7km/h 30.9mph /  49.7km/h 72% 0in /  0.0mm
14:37 50.4 °F /  10.2 °C 42.8 °F /  6.0 °C 29.5in /  998.9hPa West 25.5mph /  41.0km/h 30.2mph /  48.6km/h 72% 0in /  0.0mm
14:42 50.2 °F /  10.1 °C 41 °F /  5.0 °C 29.5in /  998.9hPa West 23.7mph /  38.1km/h 26.8mph /  43.1km/h 71% 0in /  0.0mm
14:45 50.2 °F /  10.1 °C 41 °F /  5.0 °C 29.5in /  998.9hPa West 22.6mph /  36.4km/h 30.4mph /  48.9km/h 71% 0in /  0.0mm
14:46 50.2 °F /  10.1 °C 41 °F /  5.0 °C 29.5in /  998.9hPa West 18.8mph /  30.2km/h 30.4mph /  48.9km/h 71% 0in /  0.0mm
14:50 50.4 °F /  10.2 °C 42.8 °F /  6.0 °C 29.5in /  998.9hPa West 20.8mph /  33.5km/h 30.4mph /  48.9km/h 72% 0in /  0.0mm
14:55 50.4 °F /  10.2 °C 42.8 °F /  6.0 °C 29.5in /  998.9hPa West 19.7mph /  31.7km/h 33.3mph /  53.6km/h 71% 0in /  0.0mm
15:00 50.2 °F /  10.1 °C 42.8 °F /  6.0 °C 29.5in /  998.9hPa West 27.1mph /  43.6km/h 33.3mph /  53.6km/h 72% 0in /  0.0mm
15:01 50.2 °F /  10.1 °C 42.8 °F /  6.0 °C 29.5in /  998.9hPa West 15.4mph /  24.8km/h 33.3mph /  53.6km/h 72% 0in /  0.0mm
15:02 50.2 °F /  10.1 °C 42.8 °F /  6.0 °C 29.5in /  998.9hPa West 23.9mph /  38.5km/h 33.3mph /  53.6km/h 72% 0in /  0.0mm
15:07 50.2 °F /  10.1 °C 42.8 °F /  6.0 °C 29.5in /  998.9hPa WNW 12.1mph /  19.5km/h 30.2mph /  48.6km/h 72% 0in /  0.0mm
15:09 50.2 °F /  10.1 °C 41 °F /  5.0 °C 29.5in /  998.9hPa West 22.6mph /  36.4km/h 35.1mph /  56.5km/h 71% 0in /  0.0mm
15:14 50.2 °F /  10.1 °C 42.8 °F /  6.0 °C 29.5in /  999.9hPa WSW 22.1mph /  35.6km/h 35.1mph /  56.5km/h 72% 0in /  0.0mm
15:15 50.2 °F /  10.1 °C 42.8 °F /  6.0 °C 29.5in /  999.9hPa West 26.6mph /  42.8km/h 35.1mph /  56.5km/h 73% 0in /  0.0mm
15:17 50.2 °F /  10.1 °C 42.8 °F /  6.0 °C 29.5in /  999.9hPa WSW 22.6mph /  36.4km/h 35.1mph /  56.5km/h 72% 0in /  0.0mm
15:25 50.2 °F /  10.1 °C 42.8 °F /  6.0 °C 29.5in /  999.9hPa West 23.3mph /  37.5km/h 32.9mph /  52.9km/h 72% 0in /  0.0mm
15:27 50.2 °F /  10.1 °C 42.8 °F /  6.0 °C 29.6in /  1000.9hPa West 15.2mph /  24.5km/h 32.9mph /  52.9km/h 72% 0in /  0.0mm
15:32 50.2 °F /  10.1 °C 42.8 °F /  6.0 °C 29.6in /  1000.9hPa WNW 23.5mph /  37.8km/h 30.6mph /  49.2km/h 72% 0in /  0.0mm
15:35 50.2 °F /  10.1 °C 42.8 °F /  6.0 °C 29.6in /  1000.9hPa WSW 23.5mph /  37.8km/h 30.6mph /  49.2km/h 72% 0in /  0.0mm
15:38 50 °F /  10.0 °C 42.8 °F /  6.0 °C 29.6in /  1000.9hPa WSW 20.4mph /  32.8km/h 28.4mph /  45.7km/h 72% 0in /  0.0mm
15:40 50 °F /  10.0 °C 42.8 °F /  6.0 °C 29.6in /  1000.9hPa West 21.9mph /  35.2km/h 26.2mph /  42.2km/h 73% 0in /  0.0mm
15:45 50 °F /  10.0 °C 42.8 °F /  6.0 °C 29.6in /  1000.9hPa West 17.9mph /  28.8km/h 26.2mph /  42.2km/h 73% 0in /  0.0mm
15:46 50 °F /  10.0 °C 42.8 °F /  6.0 °C 29.6in /  1000.9hPa West 16.3mph /  26.2km/h 26.2mph /  42.2km/h 73% 0in /  0.0mm
15:51 50 °F /  10.0 °C 42.8 °F /  6.0 °C 29.6in /  1000.9hPa WSW 22.4mph /  36.0km/h 28.9mph /  46.5km/h 73% 0in /  0.0mm
15:57 50 °F /  10.0 °C 42.8 °F /  6.0 °C 29.5in /  999.9hPa West 24.2mph /  38.9km/h 28.9mph /  46.5km/h 72% 0in /  0.0mm
16:00 50 °F /  10.0 °C 42.8 °F /  6.0 °C 29.5in /  999.9hPa SW 27.3mph /  43.9km/h 28mph /  45.1km/h 73% 0in /  0.0mm
16:04 50 °F /  10.0 °C 42.8 °F /  6.0 °C 29.5in /  999.9hPa West 19.2mph /  30.9km/h 27.7mph /  44.6km/h 73% 0in /  0.0mm
16:09 49.8 °F /  9.9 °C 42.8 °F /  6.0 °C 29.5in /  999.9hPa West 17.4mph /  28.0km/h 29.5mph /  47.5km/h 74% 0in /  0.0mm
16:13 49.6 °F /  9.8 °C 42.8 °F /  6.0 °C 29.6in /  1000.9hPa WSW 17mph /  27.4km/h 29.8mph /  47.9km/h 74% 0in /  0.0mm
16:18 49.5 °F /  9.7 °C 42.8 °F /  6.0 °C 29.6in /  1000.9hPa West 25.1mph /  40.4km/h 29.8mph /  47.9km/h 74% 0in /  0.0mm
16:20 49.5 °F /  9.7 °C 42.8 °F /  6.0 °C 29.6in /  1000.9hPa WSW 20.4mph /  32.8km/h 29.8mph /  47.9km/h 74% 0in /  0.0mm
16:24 49.5 °F /  9.7 °C 42.8 °F /  6.0 °C 29.6in /  1000.9hPa WSW 12.5mph /  20.1km/h 28.9mph /  46.5km/h 74% 0in /  0.0mm
16:29 49.5 °F /  9.7 °C 42.8 °F /  6.0 °C 29.6in /  1000.9hPa WSW 19.2mph /  30.9km/h 28mph /  45.1km/h 74% 0in /  0.0mm
16:32 49.5 °F /  9.7 °C 42.8 °F /  6.0 °C 29.6in /  1000.9hPa West 12.5mph /  20.1km/h 28mph /  45.1km/h 74% 0in /  0.0mm
16:41 49.5 °F /  9.7 °C 42.8 °F /  6.0 °C 29.6in /  1000.9hPa WSW 13.2mph /  21.2km/h 22.4mph /  36.0km/h 74% 0in /  0.0mm
16:42 49.5 °F /  9.7 °C 42.8 °F /  6.0 °C 29.6in /  1000.9hPa WSW 18.6mph /  29.9km/h 22.4mph /  36.0km/h 74% 0in /  0.0mm
16:46 49.5 °F /  9.7 °C 42.8 °F /  6.0 °C 29.6in /  1000.9hPa WSW 22.6mph /  36.4km/h 25.3mph /  40.7km/h 74% 0in /  0.0mm
16:51 49.3 °F /  9.6 °C 42.8 °F /  6.0 °C 29.6in /  1000.9hPa WSW 17.4mph /  28.0km/h 25.3mph /  40.7km/h 75% 0in /  0.0mm
16:53 49.3 °F /  9.6 °C 42.8 °F /  6.0 °C 29.6in /  1000.9hPa WSW 15.2mph /  24.5km/h 25.3mph /  40.7km/h 74% 0in /  0.0mm
16:54 49.3 °F /  9.6 °C 42.8 °F /  6.0 °C 29.6in /  1000.9hPa WSW 13.2mph /  21.2km/h 23.5mph /  37.8km/h 75% 0in /  0.0mm
16:59 49.3 °F /  9.6 °C 42.8 °F /  6.0 °C 29.6in /  1000.9hPa WSW 22.1mph /  35.6km/h 24.6mph /  39.6km/h 75% 0in /  0.0mm
17:01 49.3 °F /  9.6 °C 42.8 °F /  6.0 °C 29.6in /  1000.9hPa WSW 17.7mph /  28.5km/h 24.6mph /  39.6km/h 75% 0in /  0.0mm
17:07 49.3 °F /  9.6 °C 42.8 °F /  6.0 °C 29.6in /  1000.9hPa West 14.1mph /  22.7km/h 25.3mph /  40.7km/h 75% 0in /  0.0mm
17:09 49.3 °F /  9.6 °C 42.8 °F /  6.0 °C 29.6in /  1000.9hPa West 17.9mph /  28.8km/h 25.3mph /  40.7km/h 75% 0in /  0.0mm
17:13 49.1 °F /  9.5 °C 42.8 °F /  6.0 °C 29.6in /  1000.9hPa WSW 19.9mph /  32.0km/h 25.3mph /  40.7km/h 75% 0in /  0.0mm
17:18 49.1 °F /  9.5 °C 42.8 °F /  6.0 °C 29.6in /  1000.9hPa WSW 19.7mph /  31.7km/h 26.8mph /  43.1km/h 75% 0in /  0.0mm
17:23 48.9 °F /  9.4 °C 42.8 °F /  6.0 °C 29.6in /  1000.9hPa West 13.2mph /  21.2km/h 26.8mph /  43.1km/h 75% 0in /  0.0mm
17:26 48.9 °F /  9.4 °C 42.8 °F /  6.0 °C 29.6in /  1000.9hPa West 17.7mph /  28.5km/h 24.6mph /  39.6km/h 75% 0in /  0.0mm
17:32 48.9 °F /  9.4 °C 42.8 °F /  6.0 °C 29.6in /  1000.9hPa WSW 17.2mph /  27.7km/h 24.6mph /  39.6km/h 75% 0in /  0.0mm
17:37 48.7 °F /  9.3 °C 42.8 °F /  6.0 °C 29.6in /  1000.9hPa WSW 23mph /  37.0km/h 23.9mph /  38.5km/h 75% 0in /  0.0mm
17:42 48.7 °F /  9.3 °C 42.8 °F /  6.0 °C 29.6in /  1000.9hPa WSW 13mph /  20.9km/h 23.7mph /  38.1km/h 75% 0in /  0.0mm
17:47 48.6 °F /  9.2 °C 42.8 °F /  6.0 °C 29.6in /  1000.9hPa WSW 17.2mph /  27.7km/h 23.7mph /  38.1km/h 75% 0in /  0.0mm
17:48 48.6 °F /  9.2 °C 42.8 °F /  6.0 °C 29.6in /  1000.9hPa WSW 13.2mph /  21.2km/h 23.7mph /  38.1km/h 75% 0in /  0.0mm
17:52 48.6 °F /  9.2 °C 42.8 °F /  6.0 °C 29.6in /  1000.9hPa WSW 15.4mph /  24.8km/h 23.7mph /  38.1km/h 75% 0in /  0.0mm
17:57 48.4 °F /  9.1 °C 41 °F /  5.0 °C 29.6in /  1000.9hPa WSW 20.6mph /  33.1km/h 23.5mph /  37.8km/h 76% 0in /  0.0mm
17:58 48.4 °F /  9.1 °C 41 °F /  5.0 °C 29.6in /  1000.9hPa WSW 19.5mph /  31.4km/h 23.5mph /  37.8km/h 76% 0in /  0.0mm
18:03 48.6 °F /  9.2 °C 42.8 °F /  6.0 °C 29.6in /  1000.9hPa WSW 17.4mph /  28.0km/h 25.3mph /  40.7km/h 75% 0in /  0.0mm
18:12 48.4 °F /  9.1 °C 41 °F /  5.0 °C 29.6in /  1000.9hPa WSW 16.8mph /  27.0km/h 24.4mph /  39.3km/h 75% 0in /  0.0mm
18:17 48.4 °F /  9.1 °C 41 °F /  5.0 °C 29.6in /  1000.9hPa WSW 10.7mph /  17.2km/h 24.4mph /  39.3km/h 75% 0in /  0.0mm
18:22 48.4 °F /  9.1 °C 41 °F /  5.0 °C 29.6in /  1000.9hPa WSW 17.7mph /  28.5km/h 22.8mph /  36.7km/h 75% 0in /  0.0mm
18:26 48.2 °F /  9.0 °C 41 °F /  5.0 °C 29.6in /  1001.9hPa WSW 18.1mph /  29.1km/h 22.6mph /  36.4km/h 75% 0in /  0.0mm
18:31 48.2 °F /  9.0 °C 41 °F /  5.0 °C 29.6in /  1001.9hPa WSW 17.2mph /  27.7km/h 24.4mph /  39.3km/h 74% 0in /  0.0mm
18:32 48.2 °F /  9.0 °C 41 °F /  5.0 °C 29.6in /  1001.9hPa WSW 15.9mph /  25.6km/h 24.4mph /  39.3km/h 74% 0in /  0.0mm
18:37 48.4 °F /  9.1 °C 41 °F /  5.0 °C 29.6in /  1001.9hPa WSW 17.4mph /  28.0km/h 24.4mph /  39.3km/h 74% 0in /  0.0mm
18:38 48.4 °F /  9.1 °C 41 °F /  5.0 °C 29.6in /  1001.9hPa West 19.7mph /  31.7km/h 24.4mph /  39.3km/h 74% 0in /  0.0mm
18:44 48 °F /  8.9 °C 41 °F /  5.0 °C 29.6in /  1000.9hPa WSW 10.3mph /  16.6km/h 24.4mph /  39.3km/h 75% 0in /  0.0mm
18:46 48 °F /  8.9 °C 41 °F /  5.0 °C 29.6in /  1000.9hPa West 14.5mph /  23.3km/h 24.4mph /  39.3km/h 75% 0in /  0.0mm
18:51 47.8 °F /  8.8 °C 41 °F /  5.0 °C 29.6in /  1000.9hPa WSW 22.1mph /  35.6km/h 25.1mph /  40.4km/h 75% 0in /  0.0mm
18:53 47.8 °F /  8.8 °C 41 °F /  5.0 °C 29.6in /  1000.9hPa WSW 23mph /  37.0km/h 25.1mph /  40.4km/h 75% 0in /  0.0mm
18:54 47.8 °F /  8.8 °C 41 °F /  5.0 °C 29.6in /  1000.9hPa WSW 20.4mph /  32.8km/h 25.1mph /  40.4km/h 75% 0in /  0.0mm
18:59 47.8 °F /  8.8 °C 41 °F /  5.0 °C 29.6in /  1000.9hPa West 15.4mph /  24.8km/h 25.1mph /  40.4km/h 75% 0in /  0.0mm
19:01 48 °F /  8.9 °C 41 °F /  5.0 °C 29.6in /  1000.9hPa WSW 15.9mph /  25.6km/h 24.2mph /  38.9km/h 75% 0in /  0.0mm
19:06 48.2 °F /  9.0 °C 41 °F /  5.0 °C 29.6in /  1000.9hPa West 23.5mph /  37.8km/h 26.6mph /  42.8km/h 74% 0in /  0.0mm
19:09 48 °F /  8.9 °C 41 °F /  5.0 °C 29.6in /  1000.9hPa WSW 15.2mph /  24.5km/h 26.6mph /  42.8km/h 75% 0in /  0.0mm
19:14 48 °F /  8.9 °C 41 °F /  5.0 °C 29.6in /  1000.9hPa West 15.4mph /  24.8km/h 26.6mph /  42.8km/h 75% 0in /  0.0mm
19:19 48.2 °F /  9.0 °C 41 °F /  5.0 °C 29.6in /  1000.9hPa WSW 19.9mph /  32.0km/h 23.9mph /  38.5km/h 74% 0in /  0.0mm
19:22 48.2 °F /  9.0 °C 41 °F /  5.0 °C 29.6in /  1000.9hPa West 17.2mph /  27.7km/h 24.6mph /  39.6km/h 74% 0in /  0.0mm
19:27 48.2 °F /  9.0 °C 41 °F /  5.0 °C 29.6in /  1000.9hPa West 17.4mph /  28.0km/h 24.6mph /  39.6km/h 74% 0in /  0.0mm
19:29 48.2 °F /  9.0 °C 41 °F /  5.0 °C 29.6in /  1000.9hPa WSW 13.9mph /  22.4km/h 24.6mph /  39.6km/h 74% 0in /  0.0mm
19:32 48.2 °F /  9.0 °C 41 °F /  5.0 °C 29.6in /  1000.9hPa WSW 19.2mph /  30.9km/h 21.9mph /  35.2km/h 74% 0in /  0.0mm
19:37 48.2 °F /  9.0 °C 41 °F /  5.0 °C 29.6in /  1000.9hPa West 17.4mph /  28.0km/h 22.1mph /  35.6km/h 75% 0in /  0.0mm
19:40 48.4 °F /  9.1 °C 41 °F /  5.0 °C 29.6in /  1000.9hPa WSW 17.4mph /  28.0km/h 22.1mph /  35.6km/h 75% 0in /  0.0mm
19:45 48.6 °F /  9.2 °C 42.8 °F /  6.0 °C 29.6in /  1001.9hPa WSW 24.2mph /  38.9km/h 27.3mph /  43.9km/h 75% 0in /  0.0mm
19:48 48.6 °F /  9.2 °C 42.8 °F /  6.0 °C 29.6in /  1001.9hPa WSW 10.7mph /  17.2km/h 27.3mph /  43.9km/h 75% 0in /  0.0mm
19:54 48.6 °F /  9.2 °C 42.8 °F /  6.0 °C 29.6in /  1001.9hPa WSW 22.8mph /  36.7km/h 27.3mph /  43.9km/h 75% 0in /  0.0mm
19:57 48.7 °F /  9.3 °C 42.8 °F /  6.0 °C 29.6in /  1001.9hPa WSW 14.1mph /  22.7km/h 25.7mph /  41.4km/h 75% 0in /  0.0mm
20:04 48.6 °F /  9.2 °C 42.8 °F /  6.0 °C 29.6in /  1001.9hPa West 22.4mph /  36.0km/h 25.5mph /  41.0km/h 75% 0in /  0.0mm
20:09 48.6 °F /  9.2 °C 42.8 °F /  6.0 °C 29.6in /  1001.9hPa West 13mph /  20.9km/h 23mph /  37.0km/h 75% 0in /  0.0mm
20:13 48.6 °F /  9.2 °C 42.8 °F /  6.0 °C 29.6in /  1001.9hPa West 18.6mph /  29.9km/h 23mph /  37.0km/h 75% 0in /  0.0mm
20:19 48.4 °F /  9.1 °C 41 °F /  5.0 °C 29.6in /  1001.9hPa WSW 12.5mph /  20.1km/h 23.3mph /  37.5km/h 76% 0in /  0.0mm
20:20 48.4 °F /  9.1 °C 41 °F /  5.0 °C 29.6in /  1001.9hPa WSW 13mph /  20.9km/h 23.3mph /  37.5km/h 76% 0in /  0.0mm
20:25 48.4 °F /  9.1 °C 41 °F /  5.0 °C 29.6in /  1001.9hPa West 12.3mph /  19.8km/h 21.3mph /  34.3km/h 76% 0in /  0.0mm
20:28 48.4 °F /  9.1 °C 41 °F /  5.0 °C 29.6in /  1001.9hPa West 17.7mph /  28.5km/h 17.9mph /  28.8km/h 76% 0in /  0.0mm
20:29 48.4 °F /  9.1 °C 41 °F /  5.0 °C 29.6in /  1001.9hPa West 27.3mph /  43.9km/h 27.3mph /  43.9km/h 76% 0in /  0.0mm
20:33 48.6 °F /  9.2 °C 42.8 °F /  6.0 °C 29.6in /  1001.9hPa WSW 19.2mph /  30.9km/h 27.5mph /  44.2km/h 76% 0in /  0.0mm
20:38 48.6 °F /  9.2 °C 42.8 °F /  6.0 °C 29.6in /  1001.9hPa WSW 10.7mph /  17.2km/h 27.5mph /  44.2km/h 76% 0in /  0.0mm
20:40 48.4 °F /  9.1 °C 41 °F /  5.0 °C 29.6in /  1001.9hPa WSW 12.8mph /  20.6km/h 25.5mph /  41.0km/h 76% 0in /  0.0mm
20:41 48.4 °F /  9.1 °C 41 °F /  5.0 °C 29.6in /  1001.9hPa WSW 11mph /  17.7km/h 25.5mph /  41.0km/h 76% 0in /  0.0mm
20:46 48.4 °F /  9.1 °C 41 °F /  5.0 °C 29.6in /  1001.9hPa WSW 13.2mph /  21.2km/h 25.5mph /  41.0km/h 76% 0in /  0.0mm
20:52 48.6 °F /  9.2 °C 42.8 °F /  6.0 °C 29.6in /  1001.9hPa West 19.5mph /  31.4km/h 23.3mph /  37.5km/h 76% 0in /  0.0mm
20:57 48.4 °F /  9.1 °C 41 °F /  5.0 °C 29.6in /  1001.9hPa West 13mph /  20.9km/h 23.3mph /  37.5km/h 76% 0in /  0.0mm
20:58 48.4 °F /  9.1 °C 41 °F /  5.0 °C 29.6in /  1001.9hPa WSW 22.4mph /  36.0km/h 27.1mph /  43.6km/h 76% 0in /  0.0mm
20:59 48.4 °F /  9.1 °C 41 °F /  5.0 °C 29.6in /  1001.9hPa West 14.5mph /  23.3km/h 27.1mph /  43.6km/h 76% 0in /  0.0mm
21:05 48.6 °F /  9.2 °C 42.8 °F /  6.0 °C 29.6in /  1001.9hPa WSW 21.5mph /  34.6km/h 27.1mph /  43.6km/h 76% 0in /  0.0mm
21:10 48.6 °F /  9.2 °C 42.8 °F /  6.0 °C 29.6in /  1001.9hPa West 11mph /  17.7km/h 22.8mph /  36.7km/h 76% 0in /  0.0mm
21:15 48.6 °F /  9.2 °C 42.8 °F /  6.0 °C 29.6in /  1001.9hPa WSW 11mph /  17.7km/h 25.5mph /  41.0km/h 76% 0in /  0.0mm
21:20 48.6 °F /  9.2 °C 42.8 °F /  6.0 °C 29.6in /  1001.9hPa WSW 15.4mph /  24.8km/h 25.5mph /  41.0km/h 76% 0in /  0.0mm
21:25 48.4 °F /  9.1 °C 41 °F /  5.0 °C 29.6in /  1001.9hPa WSW 16.1mph /  25.9km/h 22.8mph /  36.7km/h 76% 0in /  0.0mm
21:28 48.4 °F /  9.1 °C 41 °F /  5.0 °C 29.6in /  1001.9hPa West 12.1mph /  19.5km/h 22.8mph /  36.7km/h 76% 0in /  0.0mm
21:33 48.4 °F /  9.1 °C 42.8 °F /  6.0 °C 29.6in /  1001.9hPa West 19.2mph /  30.9km/h 22.8mph /  36.7km/h 77% 0in /  0.0mm
21:34 48.4 °F /  9.1 °C 42.8 °F /  6.0 °C 29.6in /  1001.9hPa WSW 17.4mph /  28.0km/h 22.8mph /  36.7km/h 77% 0in /  0.0mm
21:38 48.4 °F /  9.1 °C 42.8 °F /  6.0 °C 29.6in /  1001.9hPa West 15.2mph /  24.5km/h 19.9mph /  32.0km/h 77% 0in /  0.0mm
21:44 48.4 °F /  9.1 °C 42.8 °F /  6.0 °C 29.6in /  1001.9hPa WSW 9.8mph /  15.8km/h 17.2mph /  27.7km/h 77% 0in /  0.0mm
21:48 48.4 °F /  9.1 °C 41 °F /  5.0 °C 29.6in /  1001.9hPa West 13.2mph /  21.2km/h 23.3mph /  37.5km/h 76% 0in /  0.0mm
21:53 48.4 °F /  9.1 °C 41 °F /  5.0 °C 29.6in /  1001.9hPa West 12.8mph /  20.6km/h 23.3mph /  37.5km/h 76% 0in /  0.0mm
21:54 48.6 °F /  9.2 °C 42.8 °F /  6.0 °C 29.6in /  1001.9hPa West 15.4mph /  24.8km/h 23.3mph /  37.5km/h 76% 0in /  0.0mm
21:55 48.6 °F /  9.2 °C 42.8 °F /  6.0 °C 29.6in /  1001.9hPa West 15.4mph /  24.8km/h 23.3mph /  37.5km/h 76% 0in /  0.0mm
22:01 48.6 °F /  9.2 °C 42.8 °F /  6.0 °C 29.6in /  1001.9hPa West 13mph /  20.9km/h 23mph /  37.0km/h 76% 0in /  0.0mm
22:02 48.6 °F /  9.2 °C 42.8 °F /  6.0 °C 29.6in /  1001.9hPa West 15.2mph /  24.5km/h 23mph /  37.0km/h 76% 0in /  0.0mm
22:07 48.6 °F /  9.2 °C 42.8 °F /  6.0 °C 29.6in /  1001.9hPa West 19.5mph /  31.4km/h 22.6mph /  36.4km/h 75% 0in /  0.0mm
22:08 48.6 °F /  9.2 °C 42.8 °F /  6.0 °C 29.6in /  1001.9hPa WSW 14.8mph /  23.8km/h 22.6mph /  36.4km/h 75% 0in /  0.0mm
22:13 48.6 °F /  9.2 °C 42.8 °F /  6.0 °C 29.6in /  1001.9hPa WSW 12.8mph /  20.6km/h 22.6mph /  36.4km/h 75% 0in /  0.0mm
22:17 48.4 °F /  9.1 °C 41 °F /  5.0 °C 29.6in /  1001.9hPa WSW 12.8mph /  20.6km/h 18.8mph /  30.2km/h 75% 0in /  0.0mm
22:22 48.2 °F /  9.0 °C 41 °F /  5.0 °C 29.6in /  1001.9hPa WSW 14.8mph /  23.8km/h 16.8mph /  27.0km/h 76% 0in /  0.0mm
22:23 48.2 °F /  9.0 °C 41 °F /  5.0 °C 29.6in /  1001.9hPa WSW 11mph /  17.7km/h 16.8mph /  27.0km/h 76% 0in /  0.0mm
22:28 48 °F /  8.9 °C 41 °F /  5.0 °C 29.6in /  1001.9hPa West 11.9mph /  19.1km/h 16.8mph /  27.0km/h 76% 0in /  0.0mm
22:33 47.8 °F /  8.8 °C 42.8 °F /  6.0 °C 29.6in /  1001.9hPa West 12.5mph /  20.1km/h 17.2mph /  27.7km/h 77% 0in /  0.0mm
22:42 47.7 °F /  8.7 °C 41 °F /  5.0 °C 29.6in /  1001.9hPa WSW 8.5mph /  13.7km/h 17mph /  27.4km/h 77% 0in /  0.0mm
22:44 47.7 °F /  8.7 °C 41 °F /  5.0 °C 29.6in /  1001.9hPa WSW 15.2mph /  24.5km/h 17mph /  27.4km/h 77% 0in /  0.0mm
22:49 47.7 °F /  8.7 °C 41 °F /  5.0 °C 29.6in /  1001.9hPa West 8.7mph /  14.0km/h 18.1mph /  29.1km/h 77% 0in /  0.0mm
22:51 47.7 °F /  8.7 °C 41 °F /  5.0 °C 29.6in /  1001.9hPa West 12.5mph /  20.1km/h 18.1mph /  29.1km/h 77% 0in /  0.0mm
22:57 47.5 °F /  8.6 °C 41 °F /  5.0 °C 29.6in /  1001.9hPa West 10.7mph /  17.2km/h 18.1mph /  29.1km/h 78% 0in /  0.0mm
23:02 47.3 °F /  8.5 °C 41 °F /  5.0 °C 29.6in /  1001.9hPa WSW 6.9mph /  11.1km/h 15.4mph /  24.8km/h 78% 0in /  0.0mm
23:10 47.3 °F /  8.5 °C 42.8 °F /  6.0 °C 29.6in /  1001.9hPa West 10.5mph /  16.9km/h 15.9mph /  25.6km/h 79% 0in /  0.0mm
23:14 47.5 °F /  8.6 °C 42.8 °F /  6.0 °C 29.6in /  1001.9hPa WSW 13.2mph /  21.2km/h 19.7mph /  31.7km/h 80% 0in /  0.0mm
23:16 47.5 °F /  8.6 °C 42.8 °F /  6.0 °C 29.6in /  1001.9hPa West 12.3mph /  19.8km/h 19.7mph /  31.7km/h 80% 0in /  0.0mm
23:22 47.5 °F /  8.6 °C 42.8 °F /  6.0 °C 29.6in /  1001.9hPa West 7.6mph /  12.2km/h 17.6mph /  28.3km/h 80% 0in /  0.0mm
23:23 47.5 °F /  8.6 °C 42.8 °F /  6.0 °C 29.6in /  1001.9hPa West 16.3mph /  26.2km/h 17.6mph /  28.3km/h 80% 0in /  0.0mm
23:25 47.5 °F /  8.6 °C 42.8 °F /  6.0 °C 29.6in /  1001.9hPa West 9.8mph /  15.8km/h 19.9mph /  32.0km/h 80% 0in /  0.0mm
23:31 47.3 °F /  8.5 °C 42.8 °F /  6.0 °C 29.6in /  1001.9hPa WSW 10.1mph /  16.3km/h 19.9mph /  32.0km/h 81% 0in /  0.0mm
23:36 47.3 °F /  8.5 °C 42.8 °F /  6.0 °C 29.6in /  1001.9hPa West 11mph /  17.7km/h 17mph /  27.4km/h 81% 0in /  0.0mm
23:41 47.3 °F /  8.5 °C 42.8 °F /  6.0 °C 29.6in /  1001.9hPa West 12.8mph /  20.6km/h 17mph /  27.4km/h 81% 0in /  0.0mm
23:46 47.3 °F /  8.5 °C 42.8 °F /  6.0 °C 29.6in /  1001.9hPa West 7.8mph /  12.6km/h 15.2mph /  24.5km/h 81% 0in /  0.0mm
23:51 46.9 °F /  8.3 °C 42.8 °F /  6.0 °C 29.6in /  1001.9hPa WSW 12.1mph /  19.5km/h 13.2mph /  21.2km/h 82% 0in /  0.0mm
23:54 47.1 °F /  8.4 °C 42.8 °F /  6.0 °C 29.6in /  1001.9hPa West 8.1mph /  13.0km/h 14.1mph /  22.7km/h 82% 0in /  0.0mm
23:57 46.9 °F /  8.3 °C 42.8 °F /  6.0 °C 29.6in /  1000.9hPa WSW 10.7mph /  17.2km/h 14.1mph /  22.7km/h 82% 0in /  0.0mm
Données Historique de Météo Turbie

Mise a jour : 24/05/2018 10:18:14
Généré par Cumulus 1.9.4 (1099)